CheckWX is a tool to help pilots better visualize weather data.  It is not intended as a substitute for an official pre-flight weather briefing.

18:31:10 UTC

ENNM METAR
Namsos Høknesøra Airport
Namsos, Norway
Current

1 hour ago

ENNM 221720Z 06010KT 4000 BR -DZ FEW005 BKN015 01/01 Q1028
Observed
Feb-22 @ 17:20 UTC
Wind
  • 060° at 10 KTS
Visibility
4,007 meters
Flight Rules
IFR
Conditions
Mist, Light Drizzle
Cloud Levels
  • Few at 500' AGL
  • Broken at 1,500' AGL
Temperature
C / 34°F
Dewpoint
C / 34°F
Humidity
100%
Altimeter
30.35" Hg
Pressure
1027.92 hPa
Previous

2 hours ago

ENNM 221650Z 06009KT 6000 3000W BR DZ FEW005 BKN014 01/01 Q1027
Observed
Feb-22 @ 16:50 UTC
Wind
  • 060° at 9 KTS
Visibility
6,003 meters
Flight Rules
MVFR
Conditions
Drizzle, Mist
Cloud Levels
  • Few at 500' AGL
  • Broken at 1,400' AGL
Temperature
C / 34°F
Dewpoint
C / 34°F
Humidity
100%
Altimeter
30.32" Hg
Pressure
1026.92 hPa
Previous

2 hours ago

ENNM 221620Z 06008KT 3000 BR -DZ SCT005 BKN013 01/01 Q1028
Observed
Feb-22 @ 16:20 UTC
Wind
  • 060° at 8 KTS
Visibility
2,993 meters
Flight Rules
IFR
Conditions
Mist, Light Drizzle
Cloud Levels
  • Scattered at 500' AGL
  • Broken at 1,300' AGL
Temperature
C / 34°F
Dewpoint
C / 34°F
Humidity
100%
Altimeter
30.35" Hg
Pressure
1027.92 hPa